BAW1 EGLL-KJFK
Flight info
| Callsign | BAW1 |
|---|---|
| Flight time | N/A |
| Altitude | 26000 |
| Route | CPT Q63 MALBY SL2 C/KESUP/N0730F260F450 SL2 C/LESLU/M200F450F600 DCT 5040N01500W 5050N02000W 5030N03000W 4916N04000W 4703N05000W 4610N05300W 4414N06000W 4246N06500W SM1 LFV/N0430F350 SM1 DCT SEY PARCH DCT |
| Aircraft | CONC/H-SDFHIRY/C |
Departure
| Time | 2026-05-07 15:51 |
|---|---|
| Airport | London Heathrow Airport (EGLL) |
Arrival
| Time | N/A |
|---|---|
| Airport | John F. Kennedy International Airport (KJFK) |
| Time | Latitude | Longitude | Altitude | Speed | Heading |
|---|---|---|---|---|---|
| 2026-05-07 14:48 | 51.46254 | -0.44366 | 95 ft | 0 kts | 290° |
| 2026-05-07 15:36 | 51.46250 | -0.44342 | 94 ft | 4 kts | 284° |
| 2026-05-07 15:37 | 51.46244 | -0.44302 | 94 ft | 4 kts | 296° |
| 2026-05-07 15:37 | 51.46229 | -0.44282 | 94 ft | 4 kts | 333° |
| 2026-05-07 15:37 | 51.46205 | -0.44276 | 94 ft | 4 kts | 12° |
| 2026-05-07 15:37 | 51.46183 | -0.44289 | 94 ft | 1 kts | 23° |
| 2026-05-07 15:38 | 51.46179 | -0.44291 | 94 ft | 0 kts | 23° |
| 2026-05-07 15:41 | 51.46180 | -0.44291 | 94 ft | 1 kts | 23° |
| 2026-05-07 15:42 | 51.46197 | -0.44279 | 94 ft | 4 kts | 22° |
| 2026-05-07 15:42 | 51.46234 | -0.44255 | 94 ft | 7 kts | 23° |
| 2026-05-07 15:42 | 51.46289 | -0.44218 | 94 ft | 7 kts | 22° |
| 2026-05-07 15:42 | 51.46324 | -0.44242 | 94 ft | 7 kts | 291° |
| 2026-05-07 15:43 | 51.46327 | -0.44339 | 94 ft | 10 kts | 269° |
| 2026-05-07 15:43 | 51.46327 | -0.44478 | 94 ft | 14 kts | 269° |
| 2026-05-07 15:43 | 51.46326 | -0.44656 | 94 ft | 18 kts | 269° |
| 2026-05-07 15:43 | 51.46325 | -0.44866 | 94 ft | 21 kts | 270° |
| 2026-05-07 15:44 | 51.46325 | -0.45102 | 94 ft | 22 kts | 270° |
| 2026-05-07 15:44 | 51.46324 | -0.45296 | 94 ft | 12 kts | 269° |
| 2026-05-07 15:44 | 51.46323 | -0.45445 | 94 ft | 15 kts | 269° |
| 2026-05-07 15:44 | 51.46326 | -0.45618 | 94 ft | 15 kts | 274° |
| 2026-05-07 15:45 | 51.46327 | -0.45802 | 94 ft | 18 kts | 269° |
| 2026-05-07 15:45 | 51.46326 | -0.46022 | 94 ft | 21 kts | 269° |
| 2026-05-07 15:45 | 51.46325 | -0.46258 | 94 ft | 21 kts | 270° |
| 2026-05-07 15:45 | 51.46324 | -0.46508 | 94 ft | 24 kts | 270° |
| 2026-05-07 15:46 | 51.46323 | -0.46920 | 94 ft | 20 kts | 270° |
| 2026-05-07 15:46 | 51.46322 | -0.47154 | 94 ft | 23 kts | 269° |
| 2026-05-07 15:46 | 51.46326 | -0.47358 | 94 ft | 14 kts | 286° |
| 2026-05-07 15:47 | 51.46340 | -0.47502 | 94 ft | 13 kts | 269° |
| 2026-05-07 15:47 | 51.46333 | -0.47646 | 94 ft | 12 kts | 246° |
| 2026-05-07 15:47 | 51.46286 | -0.47777 | 94 ft | 15 kts | 239° |
| 2026-05-07 15:47 | 51.46252 | -0.47905 | 94 ft | 10 kts | 265° |
| 2026-05-07 15:48 | 51.46251 | -0.48032 | 94 ft | 13 kts | 270° |
| 2026-05-07 15:48 | 51.46251 | -0.48193 | 94 ft | 16 kts | 269° |
| 2026-05-07 15:48 | 51.46250 | -0.48380 | 94 ft | 16 kts | 270° |
| 2026-05-07 15:48 | 51.46249 | -0.48540 | 94 ft | 13 kts | 270° |
| 2026-05-07 15:49 | 51.46284 | -0.48681 | 94 ft | 15 kts | 310° |
| 2026-05-07 15:49 | 51.46380 | -0.48753 | 94 ft | 15 kts | 355° |
| 2026-05-07 15:49 | 51.46457 | -0.48740 | 94 ft | 10 kts | 29° |
| 2026-05-07 15:49 | 51.46483 | -0.48694 | 94 ft | 0 kts | 74° |
| 2026-05-07 15:50 | 51.46483 | -0.48682 | 94 ft | 3 kts | 90° |
| 2026-05-07 15:50 | 51.46482 | -0.48533 | 94 ft | 41 kts | 90° |
| 2026-05-07 15:50 | 51.46482 | -0.47665 | 94 ft | 116 kts | 89° |
| 2026-05-07 15:50 | 51.46488 | -0.45981 | 94 ft | 185 kts | 89° |
| 2026-05-07 15:51 | 51.46490 | -0.43621 | 156 ft | 230 kts | 90° |
| 2026-05-07 15:51 | 51.46480 | -0.40921 | 640 ft | 256 kts | 90° |
| 2026-05-07 15:51 | 51.46227 | -0.38063 | 1293 ft | 256 kts | 112° |
| 2026-05-07 15:51 | 51.45356 | -0.35643 | 1839 ft | 249 kts | 134° |
| 2026-05-07 15:52 | 51.43984 | -0.33947 | 2099 ft | 252 kts | 157° |
| 2026-05-07 15:52 | 51.42271 | -0.33443 | 2403 ft | 256 kts | 191° |
| 2026-05-07 15:52 | 51.40669 | -0.34628 | 2763 ft | 259 kts | 226° |
| 2026-05-07 15:52 | 51.39737 | -0.37091 | 3151 ft | 264 kts | 258° |
| 2026-05-07 15:53 | 51.39599 | -0.40060 | 3529 ft | 271 kts | 274° |
| 2026-05-07 15:53 | 51.39923 | -0.43046 | 4030 ft | 275 kts | 282° |
| 2026-05-07 15:53 | 51.40379 | -0.45996 | 4551 ft | 277 kts | 283° |
| 2026-05-07 15:53 | 51.40859 | -0.49011 | 5118 ft | 282 kts | 282° |
| 2026-05-07 15:54 | 51.41313 | -0.52088 | 5806 ft | 286 kts | 280° |
| 2026-05-07 15:54 | 51.41688 | -0.55246 | 6630 ft | 291 kts | 277° |
| 2026-05-07 15:54 | 51.41984 | -0.58496 | 7622 ft | 300 kts | 276° |
| 2026-05-07 15:54 | 51.42257 | -0.61902 | 8728 ft | 316 kts | 276° |
| 2026-05-07 15:55 | 51.42569 | -0.65459 | 9969 ft | 326 kts | 278° |
| 2026-05-07 15:55 | 51.42965 | -0.69116 | 11057 ft | 343 kts | 279° |
| 2026-05-07 15:55 | 51.43457 | -0.72990 | 11747 ft | 364 kts | 280° |
| 2026-05-07 15:55 | 51.44012 | -0.77026 | 12498 ft | 375 kts | 280° |
| 2026-05-07 15:56 | 51.44555 | -0.81116 | 13160 ft | 383 kts | 279° |
| 2026-05-07 15:56 | 51.45041 | -0.85384 | 13692 ft | 397 kts | 277° |
| 2026-05-07 15:56 | 51.45499 | -0.89815 | 14184 ft | 408 kts | 277° |
| 2026-05-07 15:56 | 51.45963 | -0.94394 | 14566 ft | 424 kts | 277° |
| 2026-05-07 15:57 | 51.46448 | -0.99176 | 14710 ft | 444 kts | 277° |
| 2026-05-07 15:57 | 51.46786 | -1.02461 | 14849 ft | 456 kts | 278° |
| 2026-05-07 15:57 | 51.47329 | -1.07560 | 15140 ft | 472 kts | 278° |
| 2026-05-07 15:57 | 51.48122 | -1.14641 | 15738 ft | 488 kts | 279° |
| 2026-05-07 15:58 | 51.48529 | -1.18202 | 16252 ft | 490 kts | 279° |
| 2026-05-07 15:58 | 51.49148 | -1.23608 | 17054 ft | 494 kts | 279° |
| 2026-05-07 15:58 | 51.49788 | -1.29061 | 17881 ft | 499 kts | 279° |
| 2026-05-07 15:58 | 51.50449 | -1.34553 | 18735 ft | 504 kts | 279° |
| 2026-05-07 15:59 | 51.51123 | -1.40096 | 19627 ft | 509 kts | 279° |
| 2026-05-07 15:59 | 51.51803 | -1.45703 | 20549 ft | 514 kts | 279° |
| 2026-05-07 15:59 | 51.52497 | -1.51381 | 21538 ft | 520 kts | 280° |
| 2026-05-07 15:59 | 51.53213 | -1.57116 | 22544 ft | 527 kts | 280° |
| 2026-05-07 16:00 | 51.53950 | -1.62926 | 23458 ft | 533 kts | 280° |
| 2026-05-07 16:00 | 51.54682 | -1.68796 | 24281 ft | 539 kts | 279° |
| 2026-05-07 16:00 | 51.55386 | -1.74655 | 24992 ft | 545 kts | 279° |
| 2026-05-07 16:00 | 51.56069 | -1.80665 | 25639 ft | 546 kts | 279° |
| 2026-05-07 16:01 | 51.56737 | -1.86712 | 26006 ft | 551 kts | 278° |
| 2026-05-07 16:01 | 51.57404 | -1.92787 | 26041 ft | 552 kts | 279° |
| 2026-05-07 16:01 | 51.58078 | -1.98868 | 26041 ft | 552 kts | 279° |
| 2026-05-07 16:01 | 51.58617 | -2.04996 | 26034 ft | 551 kts | 271° |
| 2026-05-07 16:02 | 51.58368 | -2.11110 | 26037 ft | 548 kts | 258° |
| 2026-05-07 16:02 | 51.57593 | -2.17029 | 26041 ft | 548 kts | 255° |
| 2026-05-07 16:02 | 51.56652 | -2.22964 | 26036 ft | 547 kts | 254° |
| 2026-05-07 16:02 | 51.55653 | -2.28865 | 26033 ft | 547 kts | 253° |
| 2026-05-07 16:03 | 51.54628 | -2.34759 | 26032 ft | 547 kts | 253° |
| 2026-05-07 16:03 | 51.53592 | -2.40633 | 26031 ft | 547 kts | 253° |
| 2026-05-07 16:03 | 51.52551 | -2.46514 | 26030 ft | 547 kts | 253° |
| 2026-05-07 16:03 | 51.51513 | -2.52393 | 26029 ft | 547 kts | 253° |
| 2026-05-07 16:04 | 51.50484 | -2.58276 | 26028 ft | 547 kts | 253° |
| 2026-05-07 16:04 | 51.49473 | -2.64162 | 26027 ft | 547 kts | 254° |
| 2026-05-07 16:04 | 51.48485 | -2.70065 | 26027 ft | 548 kts | 254° |
| 2026-05-07 16:04 | 51.47510 | -2.75992 | 26026 ft | 549 kts | 254° |
| 2026-05-07 16:05 | 51.46545 | -2.81909 | 26026 ft | 549 kts | 255° |
| 2026-05-07 16:05 | 51.45589 | -2.87760 | 26025 ft | 548 kts | 254° |
| 2026-05-07 16:05 | 51.44606 | -2.93666 | 26025 ft | 548 kts | 254° |
| 2026-05-07 16:05 | 51.43610 | -2.99567 | 26025 ft | 548 kts | 254° |
| 2026-05-07 16:06 | 51.42607 | -3.05456 | 26025 ft | 548 kts | 254° |
| 2026-05-07 16:06 | 51.41600 | -3.11356 | 26025 ft | 548 kts | 253° |
| 2026-05-07 16:06 | 51.40592 | -3.17249 | 26025 ft | 548 kts | 253° |
| 2026-05-07 16:06 | 51.39586 | -3.23135 | 26026 ft | 548 kts | 254° |
| 2026-05-07 16:07 | 51.38584 | -3.29015 | 26026 ft | 548 kts | 254° |
| 2026-05-07 16:07 | 51.37578 | -3.34901 | 26026 ft | 548 kts | 253° |
| 2026-05-07 16:07 | 51.36564 | -3.40791 | 26026 ft | 548 kts | 253° |
| 2026-05-07 16:07 | 51.35542 | -3.46669 | 26026 ft | 548 kts | 253° |
| 2026-05-07 16:08 | 51.34523 | -3.52545 | 26026 ft | 548 kts | 253° |
| 2026-05-07 16:08 | 51.33523 | -3.58446 | 26053 ft | 551 kts | 255° |
| 2026-05-07 16:08 | 51.32864 | -3.64432 | 26370 ft | 555 kts | 264° |
| 2026-05-07 16:08 | 51.32602 | -3.70615 | 26872 ft | 560 kts | 266° |
| 2026-05-07 16:09 | 51.32505 | -3.76872 | 27251 ft | 565 kts | 269° |
| 2026-05-07 16:09 | 51.32523 | -3.83164 | 27612 ft | 567 kts | 270° |
| 2026-05-07 16:09 | 51.32597 | -3.89483 | 27897 ft | 569 kts | 270° |
| 2026-05-07 16:09 | 51.32698 | -3.95810 | 28133 ft | 570 kts | 270° |
| 2026-05-07 16:10 | 51.32806 | -4.02165 | 28568 ft | 573 kts | 270° |
| 2026-05-07 16:10 | 51.32913 | -4.08567 | 28956 ft | 576 kts | 270° |
| 2026-05-07 16:10 | 51.33010 | -4.14978 | 29250 ft | 578 kts | 270° |
| 2026-05-07 16:10 | 51.33080 | -4.21332 | 29532 ft | 580 kts | 269° |
| 2026-05-07 16:11 | 51.33125 | -4.27798 | 29798 ft | 582 kts | 269° |
| 2026-05-07 16:11 | 51.33153 | -4.34283 | 30065 ft | 584 kts | 269° |
| 2026-05-07 16:11 | 51.33173 | -4.40789 | 30315 ft | 586 kts | 269° |
| 2026-05-07 16:11 | 51.33192 | -4.47327 | 30565 ft | 588 kts | 269° |
| 2026-05-07 16:12 | 51.33212 | -4.53882 | 30833 ft | 591 kts | 269° |
| 2026-05-07 16:12 | 51.33239 | -4.60462 | 31109 ft | 593 kts | 269° |
| 2026-05-07 16:12 | 51.33271 | -4.67062 | 31393 ft | 595 kts | 269° |
| 2026-05-07 16:12 | 51.33301 | -4.73702 | 31701 ft | 598 kts | 269° |
| 2026-05-07 16:13 | 51.33320 | -4.80374 | 32026 ft | 601 kts | 269° |
| 2026-05-07 16:13 | 51.33329 | -4.87088 | 32318 ft | 607 kts | 269° |
| 2026-05-07 16:13 | 51.33301 | -4.93890 | 32644 ft | 614 kts | 266° |
| 2026-05-07 16:13 | 51.33030 | -5.00746 | 33083 ft | 623 kts | 263° |
| 2026-05-07 16:14 | 51.32591 | -5.07696 | 33559 ft | 634 kts | 262° |
| 2026-05-07 16:14 | 51.32025 | -5.14752 | 34049 ft | 646 kts | 261° |
| 2026-05-07 16:14 | 51.31365 | -5.21837 | 34520 ft | 659 kts | 259° |
| 2026-05-07 16:14 | 51.30631 | -5.29153 | 34970 ft | 673 kts | 259° |
| 2026-05-07 16:15 | 51.29847 | -5.36629 | 35379 ft | 686 kts | 259° |
| 2026-05-07 16:15 | 51.29033 | -5.44212 | 35790 ft | 699 kts | 259° |
| 2026-05-07 16:15 | 51.28196 | -5.51945 | 36178 ft | 712 kts | 259° |
| 2026-05-07 16:15 | 51.27345 | -5.59791 | 36552 ft | 724 kts | 259° |
| 2026-05-07 16:16 | 51.26483 | -5.67791 | 36921 ft | 736 kts | 259° |
| 2026-05-07 16:16 | 51.25625 | -5.75925 | 37294 ft | 749 kts | 259° |
| 2026-05-07 16:16 | 51.24767 | -5.84199 | 37673 ft | 762 kts | 259° |
| 2026-05-07 16:16 | 51.23909 | -5.92508 | 38056 ft | 775 kts | 259° |
| 2026-05-07 16:17 | 51.23023 | -6.01068 | 38436 ft | 789 kts | 259° |
| 2026-05-07 16:17 | 51.22107 | -6.09799 | 38861 ft | 803 kts | 259° |
| 2026-05-07 16:17 | 51.21158 | -6.18649 | 39257 ft | 817 kts | 259° |
| 2026-05-07 16:17 | 51.20177 | -6.27656 | 39646 ft | 832 kts | 259° |
| 2026-05-07 16:18 | 51.19167 | -6.36821 | 40034 ft | 846 kts | 259° |
| 2026-05-07 16:18 | 51.18126 | -6.46167 | 40390 ft | 861 kts | 259° |
| 2026-05-07 16:18 | 51.17063 | -6.55648 | 40748 ft | 875 kts | 259° |
| 2026-05-07 16:18 | 51.15981 | -6.65272 | 41080 ft | 890 kts | 259° |
| 2026-05-07 16:19 | 51.14891 | -6.74924 | 41402 ft | 903 kts | 259° |
| 2026-05-07 16:19 | 51.13766 | -6.84850 | 41722 ft | 917 kts | 259° |
| 2026-05-07 16:19 | 51.12617 | -6.94924 | 42010 ft | 930 kts | 259° |
| 2026-05-07 16:19 | 51.11441 | -7.05137 | 42301 ft | 943 kts | 259° |
| 2026-05-07 16:20 | 51.10243 | -7.15462 | 42577 ft | 955 kts | 259° |
| 2026-05-07 16:20 | 51.09017 | -7.25909 | 42819 ft | 967 kts | 259° |
| 2026-05-07 16:20 | 51.07764 | -7.36493 | 43077 ft | 977 kts | 259° |
| 2026-05-07 16:20 | 51.06528 | -7.47190 | 43288 ft | 983 kts | 260° |
| 2026-05-07 16:21 | 51.05420 | -7.57795 | 43484 ft | 987 kts | 261° |
| 2026-05-07 16:21 | 51.04412 | -7.68616 | 43670 ft | 992 kts | 262° |
| 2026-05-07 16:21 | 51.03512 | -7.79524 | 43839 ft | 997 kts | 263° |
| 2026-05-07 16:21 | 51.02700 | -7.90474 | 44005 ft | 1001 kts | 263° |
| 2026-05-07 16:22 | 51.01958 | -8.01484 | 44164 ft | 1005 kts | 264° |
| 2026-05-07 16:22 | 51.01276 | -8.12557 | 44318 ft | 1008 kts | 264° |
| 2026-05-07 16:22 | 51.00651 | -8.23677 | 44462 ft | 1011 kts | 265° |
| 2026-05-07 16:22 | 51.00077 | -8.34802 | 44600 ft | 1014 kts | 265° |
| 2026-05-07 16:23 | 50.99545 | -8.46008 | 44738 ft | 1016 kts | 265° |
| 2026-05-07 16:23 | 50.99063 | -8.57199 | 44867 ft | 1019 kts | 266° |
| 2026-05-07 16:23 | 50.98635 | -8.68448 | 44990 ft | 1021 kts | 266° |
| 2026-05-07 16:23 | 50.98289 | -8.79607 | 45108 ft | 1024 kts | 267° |
| 2026-05-07 16:24 | 50.98001 | -8.90919 | 45223 ft | 1026 kts | 268° |
| 2026-05-07 16:24 | 50.97752 | -9.02242 | 45339 ft | 1029 kts | 268° |
| 2026-05-07 16:24 | 50.97528 | -9.13605 | 45455 ft | 1031 kts | 268° |
| 2026-05-07 16:24 | 50.97312 | -9.25023 | 45569 ft | 1034 kts | 268° |
| 2026-05-07 16:25 | 50.97098 | -9.36435 | 45680 ft | 1036 kts | 268° |
| 2026-05-07 16:25 | 50.96872 | -9.47887 | 45790 ft | 1038 kts | 268° |
| 2026-05-07 16:25 | 50.96611 | -9.59369 | 45898 ft | 1041 kts | 267° |
| 2026-05-07 16:25 | 50.96310 | -9.70885 | 46011 ft | 1042 kts | 267° |
| 2026-05-07 16:26 | 50.95974 | -9.82379 | 46117 ft | 1044 kts | 267° |
| 2026-05-07 16:26 | 50.95608 | -9.93919 | 46226 ft | 1047 kts | 266° |
| 2026-05-07 16:26 | 50.95223 | -10.05297 | 46334 ft | 1049 kts | 266° |
| 2026-05-07 16:27 | 50.94390 | -10.28451 | 46553 ft | 1053 kts | 266° |
| 2026-05-07 16:27 | 50.93954 | -10.40044 | 46663 ft | 1055 kts | 266° |
| 2026-05-07 16:27 | 50.93509 | -10.51668 | 46769 ft | 1058 kts | 266° |
| 2026-05-07 16:28 | 50.92602 | -10.75005 | 46972 ft | 1063 kts | 266° |
| 2026-05-07 16:28 | 50.92143 | -10.86720 | 47082 ft | 1065 kts | 266° |
| 2026-05-07 16:28 | 50.91681 | -10.98450 | 47190 ft | 1068 kts | 266° |
| 2026-05-07 16:28 | 50.91208 | -11.10207 | 47299 ft | 1070 kts | 266° |
| 2026-05-07 16:29 | 50.90722 | -11.22018 | 47409 ft | 1073 kts | 266° |
| 2026-05-07 16:29 | 50.90219 | -11.33842 | 47520 ft | 1075 kts | 266° |
| 2026-05-07 16:29 | 50.89701 | -11.45670 | 47630 ft | 1078 kts | 265° |
| 2026-05-07 16:29 | 50.89166 | -11.57524 | 47741 ft | 1080 kts | 265° |
| 2026-05-07 16:30 | 50.88615 | -11.69406 | 47852 ft | 1083 kts | 265° |
| 2026-05-07 16:30 | 50.88050 | -11.81288 | 47970 ft | 1085 kts | 265° |
| 2026-05-07 16:30 | 50.87475 | -11.93087 | 48086 ft | 1088 kts | 265° |
| 2026-05-07 16:30 | 50.86872 | -12.05211 | 48206 ft | 1091 kts | 265° |
| 2026-05-07 16:31 | 50.86264 | -12.17185 | 48323 ft | 1093 kts | 265° |
| 2026-05-07 16:31 | 50.85644 | -12.29186 | 48440 ft | 1096 kts | 265° |
| 2026-05-07 16:31 | 50.85010 | -12.41219 | 48557 ft | 1098 kts | 265° |
| 2026-05-07 16:31 | 50.84364 | -12.53276 | 48679 ft | 1100 kts | 265° |
| 2026-05-07 16:32 | 50.83713 | -12.65209 | 48789 ft | 1102 kts | 265° |
| 2026-05-07 16:32 | 50.83042 | -12.77295 | 48892 ft | 1105 kts | 265° |
| 2026-05-07 16:32 | 50.82357 | -12.89416 | 48988 ft | 1107 kts | 264° |
| 2026-05-07 16:33 | 50.80943 | -13.13728 | 49158 ft | 1111 kts | 264° |
| 2026-05-07 16:33 | 50.79473 | -13.38103 | 49301 ft | 1114 kts | 264° |
| 2026-05-07 16:34 | 50.77947 | -13.62511 | 49421 ft | 1117 kts | 264° |
| 2026-05-07 16:34 | 50.76364 | -13.86973 | 49525 ft | 1120 kts | 264° |
| 2026-05-07 16:35 | 50.74853 | -14.11345 | 49615 ft | 1122 kts | 265° |
| 2026-05-07 16:35 | 50.73730 | -14.35959 | 49694 ft | 1124 kts | 266° |
| 2026-05-07 16:36 | 50.73002 | -14.60683 | 49760 ft | 1126 kts | 268° |
| 2026-05-07 16:36 | 50.72572 | -14.85408 | 49834 ft | 1127 kts | 269° |
| 2026-05-07 16:37 | 50.72378 | -15.10151 | 49896 ft | 1128 kts | 270° |
| 2026-05-07 16:37 | 50.72388 | -15.34765 | 49955 ft | 1129 kts | 270° |
| 2026-05-07 16:38 | 50.72568 | -15.59589 | 50007 ft | 1131 kts | 271° |
| 2026-05-07 16:38 | 50.72902 | -15.84423 | 50063 ft | 1132 kts | 271° |
| 2026-05-07 16:39 | 50.73394 | -16.09344 | 50117 ft | 1134 kts | 272° |
| 2026-05-07 16:39 | 50.74120 | -16.34051 | 50163 ft | 1135 kts | 273° |
| 2026-05-07 16:40 | 50.75079 | -16.58978 | 50201 ft | 1136 kts | 274° |
| 2026-05-07 16:40 | 50.76132 | -16.83922 | 50234 ft | 1138 kts | 274° |
| 2026-05-07 16:41 | 50.77180 | -17.08884 | 50269 ft | 1139 kts | 273° |
| 2026-05-07 16:41 | 50.78095 | -17.33903 | 50299 ft | 1139 kts | 273° |
| 2026-05-07 16:42 | 50.78856 | -17.58743 | 50323 ft | 1139 kts | 272° |
| 2026-05-07 16:42 | 50.79514 | -17.83804 | 50344 ft | 1140 kts | 272° |
| 2026-05-07 16:43 | 50.80096 | -18.08874 | 50368 ft | 1141 kts | 272° |
| 2026-05-07 16:43 | 50.80630 | -18.34005 | 50393 ft | 1141 kts | 272° |
| 2026-05-07 16:44 | 50.81129 | -18.58935 | 50418 ft | 1141 kts | 272° |
| 2026-05-07 16:44 | 50.81607 | -18.84027 | 50440 ft | 1142 kts | 271° |
| 2026-05-07 16:45 | 50.81973 | -19.09139 | 50467 ft | 1142 kts | 271° |
| 2026-05-07 16:45 | 50.82237 | -19.34267 | 50496 ft | 1142 kts | 271° |
| 2026-05-07 16:46 | 50.82524 | -19.59394 | 50522 ft | 1143 kts | 271° |
| 2026-05-07 16:46 | 50.82791 | -19.80286 | 50548 ft | 1143 kts | 271° |
| 2026-05-07 16:47 | 50.83129 | -20.05430 | 50583 ft | 1143 kts | 271° |
| 2026-05-07 16:47 | 50.83438 | -20.30605 | 50619 ft | 1143 kts | 271° |
| 2026-05-07 16:48 | 50.83634 | -20.55796 | 50654 ft | 1144 kts | 270° |
| 2026-05-07 16:48 | 50.83719 | -20.80798 | 50697 ft | 1144 kts | 270° |
| 2026-05-07 16:49 | 50.83719 | -21.05955 | 50731 ft | 1144 kts | 270° |
| 2026-05-07 16:49 | 50.83657 | -21.31129 | 50762 ft | 1144 kts | 270° |
| 2026-05-07 16:50 | 50.83548 | -21.56298 | 50797 ft | 1145 kts | 270° |
| 2026-05-07 16:50 | 50.83402 | -21.81500 | 50832 ft | 1145 kts | 269° |
| 2026-05-07 16:51 | 50.83220 | -22.06681 | 50871 ft | 1145 kts | 269° |
| 2026-05-07 16:51 | 50.82992 | -22.31909 | 50908 ft | 1146 kts | 269° |
| 2026-05-07 16:52 | 50.82709 | -22.57097 | 50957 ft | 1146 kts | 269° |
| 2026-05-07 16:52 | 50.82367 | -22.82165 | 51008 ft | 1145 kts | 269° |
| 2026-05-07 16:53 | 50.81964 | -23.07362 | 51053 ft | 1145 kts | 269° |
| 2026-05-07 16:53 | 50.81502 | -23.32563 | 51097 ft | 1145 kts | 268° |
| 2026-05-07 16:54 | 50.80986 | -23.57752 | 51136 ft | 1146 kts | 268° |
| 2026-05-07 16:54 | 50.80418 | -23.82940 | 51175 ft | 1146 kts | 268° |
| 2026-05-07 16:55 | 50.79800 | -24.07995 | 51213 ft | 1146 kts | 268° |
| 2026-05-07 16:55 | 50.79127 | -24.33182 | 51255 ft | 1146 kts | 268° |
| 2026-05-07 16:56 | 50.78400 | -24.58341 | 51296 ft | 1146 kts | 268° |
| 2026-05-07 16:56 | 50.77206 | -24.96114 | 51359 ft | 1146 kts | 267° |
| 2026-05-07 16:57 | 50.76341 | -25.21272 | 51401 ft | 1147 kts | 267° |
| 2026-05-07 16:57 | 50.75426 | -25.46335 | 51446 ft | 1147 kts | 267° |
| 2026-05-07 16:58 | 50.74454 | -25.71486 | 51484 ft | 1147 kts | 266° |
| 2026-05-07 16:58 | 50.73426 | -25.96643 | 51521 ft | 1148 kts | 266° |
| 2026-05-07 16:59 | 50.72344 | -26.21801 | 51559 ft | 1148 kts | 266° |
| 2026-05-07 16:59 | 50.71218 | -26.46755 | 51598 ft | 1148 kts | 266° |
| 2026-05-07 17:00 | 50.70030 | -26.71862 | 51636 ft | 1148 kts | 266° |
| 2026-05-07 17:00 | 50.68788 | -26.96987 | 51673 ft | 1148 kts | 266° |
| 2026-05-07 17:01 | 50.67492 | -27.22097 | 51714 ft | 1148 kts | 266° |
| 2026-05-07 17:01 | 50.66142 | -27.47202 | 51765 ft | 1148 kts | 265° |
| 2026-05-07 17:02 | 50.64740 | -27.72281 | 51813 ft | 1148 kts | 265° |
| 2026-05-07 17:02 | 50.63294 | -27.97182 | 51858 ft | 1148 kts | 265° |
| 2026-05-07 17:03 | 50.61785 | -28.22228 | 51900 ft | 1149 kts | 265° |
| 2026-05-07 17:03 | 50.60221 | -28.47277 | 51942 ft | 1149 kts | 265° |
| 2026-05-07 17:04 | 50.58604 | -28.72318 | 51980 ft | 1149 kts | 264° |
| 2026-05-07 17:04 | 50.56931 | -28.97322 | 52018 ft | 1149 kts | 264° |
| 2026-05-07 17:05 | 50.55199 | -29.22323 | 52054 ft | 1150 kts | 264° |
| 2026-05-07 17:05 | 50.53419 | -29.47339 | 52089 ft | 1151 kts | 264° |
| 2026-05-07 17:06 | 50.51606 | -29.72172 | 52126 ft | 1151 kts | 264° |
| 2026-05-07 17:06 | 50.49708 | -29.97170 | 52165 ft | 1152 kts | 263° |
| 2026-05-07 17:07 | 50.47746 | -30.22143 | 52211 ft | 1153 kts | 263° |
| 2026-05-07 17:07 | 50.45732 | -30.47107 | 52257 ft | 1153 kts | 263° |
| 2026-05-07 17:08 | 50.43660 | -30.72060 | 52302 ft | 1152 kts | 263° |
| 2026-05-07 17:08 | 50.41542 | -30.96854 | 52345 ft | 1151 kts | 263° |
| 2026-05-07 17:09 | 50.39355 | -31.21758 | 52387 ft | 1151 kts | 262° |
| 2026-05-07 17:09 | 50.37119 | -31.46592 | 52439 ft | 1150 kts | 262° |
| 2026-05-07 17:10 | 50.34832 | -31.71388 | 52490 ft | 1149 kts | 262° |
| 2026-05-07 17:10 | 50.32498 | -31.96126 | 52540 ft | 1148 kts | 262° |
| 2026-05-07 17:11 | 50.30126 | -32.20700 | 52588 ft | 1148 kts | 262° |
| 2026-05-07 17:11 | 50.27690 | -32.45394 | 52631 ft | 1148 kts | 262° |
| 2026-05-07 17:12 | 50.25200 | -32.70066 | 52671 ft | 1148 kts | 261° |
| 2026-05-07 17:12 | 50.22659 | -32.94693 | 52710 ft | 1148 kts | 261° |
| 2026-05-07 17:13 | 50.20067 | -33.19285 | 52750 ft | 1148 kts | 261° |
| 2026-05-07 17:13 | 50.17420 | -33.43878 | 52792 ft | 1148 kts | 261° |
| 2026-05-07 17:14 | 50.14742 | -33.68263 | 52836 ft | 1148 kts | 261° |
| 2026-05-07 17:14 | 50.11996 | -33.92766 | 52882 ft | 1148 kts | 261° |
| 2026-05-07 17:15 | 50.09193 | -34.17294 | 52925 ft | 1148 kts | 260° |
| 2026-05-07 17:15 | 50.06340 | -34.41771 | 52965 ft | 1148 kts | 260° |
| 2026-05-07 17:16 | 50.03439 | -34.66195 | 53001 ft | 1148 kts | 260° |
| 2026-05-07 17:16 | 50.00506 | -34.90439 | 53034 ft | 1148 kts | 260° |
| 2026-05-07 17:17 | 49.97501 | -35.14817 | 53067 ft | 1148 kts | 259° |
| 2026-05-07 17:17 | 49.94443 | -35.39186 | 53103 ft | 1148 kts | 259° |
| 2026-05-07 17:18 | 49.91333 | -35.63535 | 53141 ft | 1148 kts | 259° |
| 2026-05-07 17:18 | 49.88192 | -35.87692 | 53179 ft | 1148 kts | 259° |
| 2026-05-07 17:19 | 49.84984 | -36.11954 | 53216 ft | 1148 kts | 259° |
| 2026-05-07 17:19 | 49.81724 | -36.36188 | 53251 ft | 1148 kts | 259° |
| 2026-05-07 17:20 | 49.78414 | -36.60389 | 53284 ft | 1148 kts | 258° |
| 2026-05-07 17:20 | 49.75055 | -36.84544 | 53316 ft | 1149 kts | 258° |
| 2026-05-07 17:21 | 49.71643 | -37.08689 | 53350 ft | 1149 kts | 258° |
| 2026-05-07 17:21 | 49.68194 | -37.32708 | 53384 ft | 1149 kts | 258° |
| 2026-05-07 17:22 | 49.64684 | -37.56774 | 53417 ft | 1149 kts | 258° |
| 2026-05-07 17:22 | 49.61122 | -37.80813 | 53450 ft | 1148 kts | 257° |
| 2026-05-07 17:23 | 49.57510 | -38.04820 | 53480 ft | 1148 kts | 257° |
| 2026-05-07 17:23 | 49.53857 | -38.28738 | 53513 ft | 1148 kts | 257° |
| 2026-05-07 17:24 | 49.50172 | -38.52509 | 53546 ft | 1148 kts | 257° |
| 2026-05-07 17:24 | 49.46412 | -38.76412 | 53582 ft | 1148 kts | 257° |
| 2026-05-07 17:25 | 49.42591 | -39.00264 | 53621 ft | 1148 kts | 256° |
| 2026-05-07 17:25 | 49.39314 | -39.20038 | 53655 ft | 1148 kts | 256° |